Weather at Lamego Hospital Heliport

Public forecast

Using degrees Celsius for public forecast. Weather courtesy of forecast.io.

Closest aviation weather report (METAR) to Lamego Hospital Heliport

Report is more than 2 hours old.

Closest report is Ovar Air Base, 39.8 nm (73.6 km) WSW. Retrieved 2022/06/24 20:00 UTC (3 hours ago):

LPOV 242000Z 20005KT 150V240 9999 SCT020 BKN030 19/15 Q1016

Closest aviation forecast (TAF) to Lamego Hospital Heliport

Closest forecast is Ovar Air Base, 39.8 nm (73.6 km) WSW. Retrieved 2022/06/24 18:21 UTC (4 hours ago):

TAF LPOV 241701Z 2418/2518 23008KT 9999 SCT025 BKN035 TEMPO 2418/2503 4000 -RA BR SCT010 BKN014 PROB40 TEMPO 2422/2502 3000 RADZ BR SCT004 BKN008 BECMG 2423/2502 34005KT BECMG 2510/2512 35012KT SCT030